sensor_id;sensor_type;location;lat;lon;timestamp;P1;durP1;ratioP1;P2;durP2;ratioP2
72891;SDS011;61032;50.782;6.818;2023-06-14T00:00:39;6.75;;;4.57;;
72891;SDS011;61032;50.782;6.818;2023-06-14T00:01:41;4.75;;;3.50;;
72891;SDS011;61032;50.782;6.818;2023-06-14T00:02:41;5.97;;;4.20;;
72891;SDS011;61032;50.782;6.818;2023-06-14T00:03:41;7.88;;;4.45;;
72891;SDS011;61032;50.782;6.818;2023-06-14T00:04:41;5.60;;;4.47;;
72891;SDS011;61032;50.782;6.818;2023-06-14T00:05:43;8.52;;;4.28;;
72891;SDS011;61032;50.782;6.818;2023-06-14T00:06:44;5.70;;;4.45;;
72891;SDS011;61032;50.782;6.818;2023-06-14T00:07:48;6.97;;;4.80;;
72891;SDS011;61032;50.782;6.818;2023-06-14T00:08:49;7.20;;;4.43;;
72891;SDS011;61032;50.782;6.818;2023-06-14T00:09:49;5.43;;;4.32;;
72891;SDS011;61032;50.782;6.818;2023-06-14T00:10:50;7.75;;;4.25;;
72891;SDS011;61032;50.782;6.818;2023-06-14T00:11:50;4.78;;;4.25;;
72891;SDS011;61032;50.782;6.818;2023-06-14T00:12:50;7.10;;;5.43;;
72891;SDS011;61032;50.782;6.818;2023-06-14T00:13:51;4.88;;;4.05;;
72891;SDS011;61032;50.782;6.818;2023-06-14T00:14:51;4.35;;;3.95;;
72891;SDS011;61032;50.782;6.818;2023-06-14T00:15:51;5.50;;;4.05;;
72891;SDS011;61032;50.782;6.818;2023-06-14T00:16:54;7.22;;;4.40;;
72891;SDS011;61032;50.782;6.818;2023-06-14T00:17:58;5.57;;;4.53;;
72891;SDS011;61032;50.782;6.818;2023-06-14T00:19:01;7.68;;;4.07;;
72891;SDS011;61032;50.782;6.818;2023-06-14T00:20:05;6.47;;;4.15;;
72891;SDS011;61032;50.782;6.818;2023-06-14T00:21:06;6.97;;;4.30;;
72891;SDS011;61032;50.782;6.818;2023-06-14T00:22:06;6.03;;;4.05;;
72891;SDS011;61032;50.782;6.818;2023-06-14T00:23:07;5.32;;;4.28;;
72891;SDS011;61032;50.782;6.818;2023-06-14T00:24:07;6.35;;;4.43;;
72891;SDS011;61032;50.782;6.818;2023-06-14T00:25:08;5.63;;;4.32;;
72891;SDS011;61032;50.782;6.818;2023-06-14T00:26:08;5.57;;;4.53;;
72891;SDS011;61032;50.782;6.818;2023-06-14T00:27:08;4.85;;;4.03;;
72891;SDS011;61032;50.782;6.818;2023-06-14T00:28:08;7.88;;;5.15;;
72891;SDS011;61032;50.782;6.818;2023-06-14T00:29:09;5.57;;;4.25;;
72891;SDS011;61032;50.782;6.818;2023-06-14T00:30:09;5.88;;;5.03;;
72891;SDS011;61032;50.782;6.818;2023-06-14T00:31:10;7.20;;;4.00;;
72891;SDS011;61032;50.782;6.818;2023-06-14T00:32:11;6.40;;;4.07;;
72891;SDS011;61032;50.782;6.818;2023-06-14T00:33:11;5.72;;;4.45;;
72891;SDS011;61032;50.782;6.818;2023-06-14T00:34:11;6.75;;;4.30;;
72891;SDS011;61032;50.782;6.818;2023-06-14T00:35:12;6.55;;;4.60;;
72891;SDS011;61032;50.782;6.818;2023-06-14T00:36:12;6.53;;;4.40;;
72891;SDS011;61032;50.782;6.818;2023-06-14T00:37:12;6.68;;;4.20;;
72891;SDS011;61032;50.782;6.818;2023-06-14T00:38:13;5.50;;;4.38;;
72891;SDS011;61032;50.782;6.818;2023-06-14T00:39:13;5.82;;;4.10;;
72891;SDS011;61032;50.782;6.818;2023-06-14T00:40:14;6.28;;;4.38;;
72891;SDS011;61032;50.782;6.818;2023-06-14T00:41:14;8.18;;;4.53;;
72891;SDS011;61032;50.782;6.818;2023-06-14T00:42:24;7.00;;;4.10;;
72891;SDS011;61032;50.782;6.818;2023-06-14T00:43:25;6.75;;;4.38;;
72891;SDS011;61032;50.782;6.818;2023-06-14T00:44:25;6.00;;;4.40;;
72891;SDS011;61032;50.782;6.818;2023-06-14T00:45:26;6.90;;;4.65;;
72891;SDS011;61032;50.782;6.818;2023-06-14T00:46:26;9.02;;;4.68;;
72891;SDS011;61032;50.782;6.818;2023-06-14T00:47:26;6.88;;;4.70;;
72891;SDS011;61032;50.782;6.818;2023-06-14T00:48:27;5.57;;;4.07;;
72891;SDS011;61032;50.782;6.818;2023-06-14T00:49:28;5.43;;;4.57;;
72891;SDS011;61032;50.782;6.818;2023-06-14T00:50:29;4.45;;;4.03;;
72891;SDS011;61032;50.782;6.818;2023-06-14T00:51:31;7.00;;;4.63;;
72891;SDS011;61032;50.782;6.818;2023-06-14T00:52:32;6.00;;;3.92;;
72891;SDS011;61032;50.782;6.818;2023-06-14T00:53:32;6.88;;;4.30;;
72891;SDS011;61032;50.782;6.818;2023-06-14T00:54:35;6.53;;;4.68;;
72891;SDS011;61032;50.782;6.818;2023-06-14T00:55:35;5.22;;;3.90;;
72891;SDS011;61032;50.782;6.818;2023-06-14T00:56:36;5.47;;;4.40;;
72891;SDS011;61032;50.782;6.818;2023-06-14T00:57:37;5.72;;;4.22;;
72891;SDS011;61032;50.782;6.818;2023-06-14T00:58:38;5.40;;;3.72;;
72891;SDS011;61032;50.782;6.818;2023-06-14T00:59:42;6.63;;;4.90;;
72891;SDS011;61032;50.782;6.818;2023-06-14T01:00:43;5.07;;;4.25;;
72891;SDS011;61032;50.782;6.818;2023-06-14T01:01:44;6.18;;;4.40;;
72891;SDS011;61032;50.782;6.818;2023-06-14T01:02:45;7.18;;;4.50;;
72891;SDS011;61032;50.782;6.818;2023-06-14T01:03:45;5.22;;;4.30;;
72891;SDS011;61032;50.782;6.818;2023-06-14T01:04:46;6.82;;;4.10;;
72891;SDS011;61032;50.782;6.818;2023-06-14T01:05:53;4.93;;;3.92;;
72891;SDS011;61032;50.782;6.818;2023-06-14T01:07:05;7.10;;;5.05;;
72891;SDS011;61032;50.782;6.818;2023-06-14T01:08:36;5.35;;;3.90;;
72891;SDS011;61032;50.782;6.818;2023-06-14T01:11:07;8.32;;;4.53;;
72891;SDS011;61032;50.782;6.818;2023-06-14T01:12:18;5.85;;;4.47;;
72891;SDS011;61032;50.782;6.818;2023-06-14T01:13:35;5.43;;;4.22;;
72891;SDS011;61032;50.782;6.818;2023-06-14T01:14:38;5.65;;;4.28;;
72891;SDS011;61032;50.782;6.818;2023-06-14T01:15:39;6.13;;;4.90;;
72891;SDS011;61032;50.782;6.818;2023-06-14T01:17:41;5.88;;;3.92;;
72891;SDS011;61032;50.782;6.818;2023-06-14T01:18:45;5.45;;;4.22;;
72891;SDS011;61032;50.782;6.818;2023-06-14T01:19:50;8.02;;;4.35;;
72891;SDS011;61032;50.782;6.818;2023-06-14T01:20:57;9.65;;;4.60;;
72891;SDS011;61032;50.782;6.818;2023-06-14T01:21:58;6.90;;;4.55;;
72891;SDS011;61032;50.782;6.818;2023-06-14T01:23:01;6.55;;;5.35;;
72891;SDS011;61032;50.782;6.818;2023-06-14T01:24:02;5.43;;;4.25;;
72891;SDS011;61032;50.782;6.818;2023-06-14T01:25:03;6.32;;;4.32;;
72891;SDS011;61032;50.782;6.818;2023-06-14T01:26:04;7.28;;;4.40;;
72891;SDS011;61032;50.782;6.818;2023-06-14T01:27:05;7.05;;;5.20;;
72891;SDS011;61032;50.782;6.818;2023-06-14T01:28:07;7.43;;;4.68;;
72891;SDS011;61032;50.782;6.818;2023-06-14T01:29:13;6.30;;;4.82;;
72891;SDS011;61032;50.782;6.818;2023-06-14T01:30:17;9.02;;;4.80;;
72891;SDS011;61032;50.782;6.818;2023-06-14T01:31:20;6.35;;;4.32;;
72891;SDS011;61032;50.782;6.818;2023-06-14T01:32:24;5.18;;;4.35;;
72891;SDS011;61032;50.782;6.818;2023-06-14T01:33:27;6.43;;;4.70;;
72891;SDS011;61032;50.782;6.818;2023-06-14T01:34:29;8.55;;;4.75;;
72891;SDS011;61032;50.782;6.818;2023-06-14T01:35:29;6.30;;;4.18;;
72891;SDS011;61032;50.782;6.818;2023-06-14T01:36:30;5.90;;;4.85;;
72891;SDS011;61032;50.782;6.818;2023-06-14T01:37:30;6.53;;;4.95;;
72891;SDS011;61032;50.782;6.818;2023-06-14T01:38:31;10.13;;;4.50;;
72891;SDS011;61032;50.782;6.818;2023-06-14T01:39:32;8.52;;;4.22;;
72891;SDS011;61032;50.782;6.818;2023-06-14T01:40:34;7.93;;;4.82;;
72891;SDS011;61032;50.782;6.818;2023-06-14T01:41:35;5.47;;;4.47;;
72891;SDS011;61032;50.782;6.818;2023-06-14T01:42:37;6.75;;;5.10;;
72891;SDS011;61032;50.782;6.818;2023-06-14T01:43:38;6.10;;;4.72;;
72891;SDS011;61032;50.782;6.818;2023-06-14T01:44:41;5.05;;;4.28;;
72891;SDS011;61032;50.782;6.818;2023-06-14T01:45:43;5.05;;;4.30;;
72891;SDS011;61032;50.782;6.818;2023-06-14T01:46:47;6.03;;;4.30;;
72891;SDS011;61032;50.782;6.818;2023-06-14T01:47:48;7.50;;;4.10;;
72891;SDS011;61032;50.782;6.818;2023-06-14T01:48:48;6.05;;;4.80;;
72891;SDS011;61032;50.782;6.818;2023-06-14T01:49:49;4.57;;;4.10;;
72891;SDS011;61032;50.782;6.818;2023-06-14T01:50:50;5.82;;;4.75;;
72891;SDS011;61032;50.782;6.818;2023-06-14T01:51:52;4.78;;;4.28;;
72891;SDS011;61032;50.782;6.818;2023-06-14T01:52:52;7.80;;;4.63;;
72891;SDS011;61032;50.782;6.818;2023-06-14T01:53:52;4.93;;;4.30;;
72891;SDS011;61032;50.782;6.818;2023-06-14T01:54:53;6.03;;;4.50;;
72891;SDS011;61032;50.782;6.818;2023-06-14T01:55:53;5.40;;;4.38;;
72891;SDS011;61032;50.782;6.818;2023-06-14T01:56:54;7.95;;;4.70;;
72891;SDS011;61032;50.782;6.818;2023-06-14T01:57:54;5.97;;;4.50;;
72891;SDS011;61032;50.782;6.818;2023-06-14T01:58:54;6.80;;;4.68;;
72891;SDS011;61032;50.782;6.818;2023-06-14T01:59:56;5.78;;;4.30;;
72891;SDS011;61032;50.782;6.818;2023-06-14T02:00:57;7.97;;;4.43;;
72891;SDS011;61032;50.782;6.818;2023-06-14T02:01:58;5.82;;;4.05;;
72891;SDS011;61032;50.782;6.818;2023-06-14T02:02:58;5.35;;;4.63;;
72891;SDS011;61032;50.782;6.818;2023-06-14T02:03:58;8.65;;;4.93;;
72891;SDS011;61032;50.782;6.818;2023-06-14T02:04:58;5.90;;;4.55;;
72891;SDS011;61032;50.782;6.818;2023-06-14T02:05:59;5.18;;;4.10;;
72891;SDS011;61032;50.782;6.818;2023-06-14T02:06:59;5.40;;;4.70;;
72891;SDS011;61032;50.782;6.818;2023-06-14T02:08:00;4.65;;;4.10;;
72891;SDS011;61032;50.782;6.818;2023-06-14T02:09:01;5.88;;;4.70;;
72891;SDS011;61032;50.782;6.818;2023-06-14T02:11:04;6.68;;;4.30;;
72891;SDS011;61032;50.782;6.818;2023-06-14T02:12:04;4.97;;;4.03;;
72891;SDS011;61032;50.782;6.818;2023-06-14T02:13:05;4.95;;;4.40;;
72891;SDS011;61032;50.782;6.818;2023-06-14T02:14:05;6.00;;;5.40;;
72891;SDS011;61032;50.782;6.818;2023-06-14T02:15:07;7.75;;;4.50;;
72891;SDS011;61032;50.782;6.818;2023-06-14T02:16:08;9.77;;;4.70;;
72891;SDS011;61032;50.782;6.818;2023-06-14T02:17:08;8.25;;;5.03;;
72891;SDS011;61032;50.782;6.818;2023-06-14T02:18:09;7.50;;;4.50;;
72891;SDS011;61032;50.782;6.818;2023-06-14T02:19:10;6.97;;;4.85;;
72891;SDS011;61032;50.782;6.818;2023-06-14T02:20:11;6.78;;;4.75;;
72891;SDS011;61032;50.782;6.818;2023-06-14T02:21:11;6.28;;;4.70;;
72891;SDS011;61032;50.782;6.818;2023-06-14T02:22:12;6.38;;;4.57;;
72891;SDS011;61032;50.782;6.818;2023-06-14T02:24:15;6.20;;;4.45;;
72891;SDS011;61032;50.782;6.818;2023-06-14T02:25:15;5.20;;;4.00;;
72891;SDS011;61032;50.782;6.818;2023-06-14T02:26:16;9.77;;;4.75;;
72891;SDS011;61032;50.782;6.818;2023-06-14T02:27:16;9.77;;;4.70;;
72891;SDS011;61032;50.782;6.818;2023-06-14T02:28:16;6.00;;;5.00;;
72891;SDS011;61032;50.782;6.818;2023-06-14T02:29:17;6.28;;;4.50;;
72891;SDS011;61032;50.782;6.818;2023-06-14T02:30:17;7.43;;;4.82;;
72891;SDS011;61032;50.782;6.818;2023-06-14T02:31:17;5.13;;;4.32;;
72891;SDS011;61032;50.782;6.818;2023-06-14T02:32:18;5.38;;;4.40;;
72891;SDS011;61032;50.782;6.818;2023-06-14T02:33:18;5.50;;;4.35;;
72891;SDS011;61032;50.782;6.818;2023-06-14T02:34:18;7.00;;;4.72;;
72891;SDS011;61032;50.782;6.818;2023-06-14T02:35:20;9.57;;;4.28;;
72891;SDS011;61032;50.782;6.818;2023-06-14T02:36:22;6.53;;;4.38;;
72891;SDS011;61032;50.782;6.818;2023-06-14T02:37:22;8.57;;;4.57;;
72891;SDS011;61032;50.782;6.818;2023-06-14T02:38:22;7.60;;;4.35;;
72891;SDS011;61032;50.782;6.818;2023-06-14T02:39:23;7.25;;;4.07;;
72891;SDS011;61032;50.782;6.818;2023-06-14T02:40:23;6.78;;;4.30;;
72891;SDS011;61032;50.782;6.818;2023-06-14T02:41:24;6.40;;;4.65;;
72891;SDS011;61032;50.782;6.818;2023-06-14T02:43:26;8.38;;;4.07;;
72891;SDS011;61032;50.782;6.818;2023-06-14T02:44:29;6.50;;;4.78;;
72891;SDS011;61032;50.782;6.818;2023-06-14T02:45:29;8.00;;;6.00;;
72891;SDS011;61032;50.782;6.818;2023-06-14T02:46:30;5.07;;;4.43;;
72891;SDS011;61032;50.782;6.818;2023-06-14T02:47:30;5.93;;;4.80;;
72891;SDS011;61032;50.782;6.818;2023-06-14T02:48:30;6.82;;;4.95;;
72891;SDS011;61032;50.782;6.818;2023-06-14T02:49:31;7.05;;;5.10;;
72891;SDS011;61032;50.782;6.818;2023-06-14T02:50:31;6.53;;;4.75;;
72891;SDS011;61032;50.782;6.818;2023-06-14T02:51:32;7.70;;;4.60;;
72891;SDS011;61032;50.782;6.818;2023-06-14T02:52:33;6.70;;;4.68;;
72891;SDS011;61032;50.782;6.818;2023-06-14T02:53:34;7.72;;;4.63;;
72891;SDS011;61032;50.782;6.818;2023-06-14T02:54:34;9.43;;;5.00;;
72891;SDS011;61032;50.782;6.818;2023-06-14T02:55:35;6.40;;;4.50;;
72891;SDS011;61032;50.782;6.818;2023-06-14T02:56:39;5.13;;;4.40;;
72891;SDS011;61032;50.782;6.818;2023-06-14T02:57:40;8.60;;;5.05;;
72891;SDS011;61032;50.782;6.818;2023-06-14T02:58:41;5.20;;;4.43;;
72891;SDS011;61032;50.782;6.818;2023-06-14T02:59:41;9.20;;;4.88;;
72891;SDS011;61032;50.782;6.818;2023-06-14T03:00:42;8.38;;;5.35;;
72891;SDS011;61032;50.782;6.818;2023-06-14T03:01:42;6.80;;;4.82;;
72891;SDS011;61032;50.782;6.818;2023-06-14T03:02:43;6.85;;;4.80;;
72891;SDS011;61032;50.782;6.818;2023-06-14T03:03:43;7.45;;;4.55;;
72891;SDS011;61032;50.782;6.818;2023-06-14T03:04:43;7.82;;;5.55;;
72891;SDS011;61032;50.782;6.818;2023-06-14T03:05:45;6.97;;;5.10;;
72891;SDS011;61032;50.782;6.818;2023-06-14T03:06:47;7.43;;;5.00;;
72891;SDS011;61032;50.782;6.818;2023-06-14T03:07:50;7.97;;;5.07;;
72891;SDS011;61032;50.782;6.818;2023-06-14T03:08:50;6.28;;;5.05;;
72891;SDS011;61032;50.782;6.818;2023-06-14T03:09:51;6.00;;;4.30;;
72891;SDS011;61032;50.782;6.818;2023-06-14T03:10:52;8.35;;;5.10;;
72891;SDS011;61032;50.782;6.818;2023-06-14T03:11:53;5.85;;;4.68;;
72891;SDS011;61032;50.782;6.818;2023-06-14T03:12:53;6.90;;;4.63;;
72891;SDS011;61032;50.782;6.818;2023-06-14T03:13:53;7.15;;;5.47;;
72891;SDS011;61032;50.782;6.818;2023-06-14T03:14:55;6.57;;;4.80;;
72891;SDS011;61032;50.782;6.818;2023-06-14T03:15:56;6.03;;;4.57;;
72891;SDS011;61032;50.782;6.818;2023-06-14T03:16:57;6.85;;;4.25;;
72891;SDS011;61032;50.782;6.818;2023-06-14T03:17:57;6.05;;;4.88;;
72891;SDS011;61032;50.782;6.818;2023-06-14T03:18:59;7.20;;;4.35;;
72891;SDS011;61032;50.782;6.818;2023-06-14T03:19:59;5.60;;;4.38;;
72891;SDS011;61032;50.782;6.818;2023-06-14T03:21:00;6.30;;;4.75;;
72891;SDS011;61032;50.782;6.818;2023-06-14T03:22:01;6.32;;;4.43;;
72891;SDS011;61032;50.782;6.818;2023-06-14T03:23:02;5.75;;;4.57;;
72891;SDS011;61032;50.782;6.818;2023-06-14T03:24:03;6.47;;;5.20;;
72891;SDS011;61032;50.782;6.818;2023-06-14T03:25:04;6.72;;;4.72;;
72891;SDS011;61032;50.782;6.818;2023-06-14T03:26:04;5.63;;;5.03;;
72891;SDS011;61032;50.782;6.818;2023-06-14T03:27:05;5.75;;;4.65;;
72891;SDS011;61032;50.782;6.818;2023-06-14T03:28:05;6.95;;;4.80;;
72891;SDS011;61032;50.782;6.818;2023-06-14T03:29:05;6.13;;;4.78;;
72891;SDS011;61032;50.782;6.818;2023-06-14T03:30:06;5.15;;;4.18;;
72891;SDS011;61032;50.782;6.818;2023-06-14T03:31:07;7.05;;;4.70;;
72891;SDS011;61032;50.782;6.818;2023-06-14T03:32:08;6.85;;;4.95;;
72891;SDS011;61032;50.782;6.818;2023-06-14T03:33:09;7.43;;;5.47;;
72891;SDS011;61032;50.782;6.818;2023-06-14T03:34:09;6.80;;;4.88;;
72891;SDS011;61032;50.782;6.818;2023-06-14T03:35:10;6.88;;;4.90;;
72891;SDS011;61032;50.782;6.818;2023-06-14T03:36:16;7.07;;;4.60;;
72891;SDS011;61032;50.782;6.818;2023-06-14T03:37:17;7.22;;;5.05;;
72891;SDS011;61032;50.782;6.818;2023-06-14T03:38:18;7.03;;;4.68;;
72891;SDS011;61032;50.782;6.818;2023-06-14T03:39:18;5.85;;;4.43;;
72891;SDS011;61032;50.782;6.818;2023-06-14T03:40:20;6.18;;;5.07;;
72891;SDS011;61032;50.782;6.818;2023-06-14T03:41:21;7.97;;;4.45;;
72891;SDS011;61032;50.782;6.818;2023-06-14T03:42:21;5.30;;;4.38;;
72891;SDS011;61032;50.782;6.818;2023-06-14T03:43:22;5.82;;;5.22;;
72891;SDS011;61032;50.782;6.818;2023-06-14T03:44:22;6.45;;;5.15;;
72891;SDS011;61032;50.782;6.818;2023-06-14T03:45:22;5.53;;;4.50;;
72891;SDS011;61032;50.782;6.818;2023-06-14T03:46:23;9.18;;;4.70;;
72891;SDS011;61032;50.782;6.818;2023-06-14T03:47:23;5.85;;;4.20;;
72891;SDS011;61032;50.782;6.818;2023-06-14T03:48:23;6.35;;;4.38;;
72891;SDS011;61032;50.782;6.818;2023-06-14T03:49:24;6.80;;;4.70;;
72891;SDS011;61032;50.782;6.818;2023-06-14T03:50:24;7.47;;;4.93;;
72891;SDS011;61032;50.782;6.818;2023-06-14T03:51:24;7.50;;;5.38;;
72891;SDS011;61032;50.782;6.818;2023-06-14T03:52:25;7.13;;;4.30;;
72891;SDS011;61032;50.782;6.818;2023-06-14T03:53:26;6.85;;;4.82;;
72891;SDS011;61032;50.782;6.818;2023-06-14T03:54:28;6.75;;;4.78;;
72891;SDS011;61032;50.782;6.818;2023-06-14T03:55:28;8.32;;;5.05;;
72891;SDS011;61032;50.782;6.818;2023-06-14T03:56:31;6.95;;;4.30;;
72891;SDS011;61032;50.782;6.818;2023-06-14T03:57:31;8.98;;;5.47;;
72891;SDS011;61032;50.782;6.818;2023-06-14T03:58:31;7.25;;;4.60;;
72891;SDS011;61032;50.782;6.818;2023-06-14T03:59:31;8.38;;;5.75;;
72891;SDS011;61032;50.782;6.818;2023-06-14T04:00:32;6.45;;;4.25;;
72891;SDS011;61032;50.782;6.818;2023-06-14T04:01:32;5.25;;;4.20;;
72891;SDS011;61032;50.782;6.818;2023-06-14T04:02:33;7.88;;;4.50;;
72891;SDS011;61032;50.782;6.818;2023-06-14T04:03:33;7.38;;;4.53;;
72891;SDS011;61032;50.782;6.818;2023-06-14T04:04:34;8.65;;;4.47;;
72891;SDS011;61032;50.782;6.818;2023-06-14T04:05:35;7.28;;;4.60;;
72891;SDS011;61032;50.782;6.818;2023-06-14T04:06:36;13.48;;;4.90;;
72891;SDS011;61032;50.782;6.818;2023-06-14T04:07:37;9.68;;;5.50;;
72891;SDS011;61032;50.782;6.818;2023-06-14T04:08:44;7.80;;;4.90;;
72891;SDS011;61032;50.782;6.818;2023-06-14T04:09:45;7.45;;;5.05;;
72891;SDS011;61032;50.782;6.818;2023-06-14T04:10:46;7.38;;;5.13;;
72891;SDS011;61032;50.782;6.818;2023-06-14T04:11:46;7.30;;;5.40;;
72891;SDS011;61032;50.782;6.818;2023-06-14T04:12:46;7.93;;;5.00;;
72891;SDS011;61032;50.782;6.818;2023-06-14T04:13:47;9.20;;;5.03;;
72891;SDS011;61032;50.782;6.818;2023-06-14T04:14:47;7.35;;;4.65;;
72891;SDS011;61032;50.782;6.818;2023-06-14T04:15:48;7.68;;;4.72;;
72891;SDS011;61032;50.782;6.818;2023-06-14T04:16:48;7.38;;;4.43;;
72891;SDS011;61032;50.782;6.818;2023-06-14T04:17:49;6.70;;;4.75;;
72891;SDS011;61032;50.782;6.818;2023-06-14T04:18:50;6.00;;;4.90;;
72891;SDS011;61032;50.782;6.818;2023-06-14T04:19:52;5.80;;;4.47;;
72891;SDS011;61032;50.782;6.818;2023-06-14T04:20:52;6.70;;;5.07;;
72891;SDS011;61032;50.782;6.818;2023-06-14T04:21:53;7.00;;;4.70;;
72891;SDS011;61032;50.782;6.818;2023-06-14T04:22:53;7.22;;;4.38;;
72891;SDS011;61032;50.782;6.818;2023-06-14T04:23:57;7.90;;;5.40;;
72891;SDS011;61032;50.782;6.818;2023-06-14T04:24:57;8.30;;;4.93;;
72891;SDS011;61032;50.782;6.818;2023-06-14T04:25:57;8.25;;;5.03;;
72891;SDS011;61032;50.782;6.818;2023-06-14T04:27:02;7.90;;;4.55;;
72891;SDS011;61032;50.782;6.818;2023-06-14T04:28:02;6.63;;;4.47;;
72891;SDS011;61032;50.782;6.818;2023-06-14T04:29:03;7.10;;;5.03;;
72891;SDS011;61032;50.782;6.818;2023-06-14T04:30:04;7.95;;;4.60;;
72891;SDS011;61032;50.782;6.818;2023-06-14T04:31:04;8.32;;;5.57;;
72891;SDS011;61032;50.782;6.818;2023-06-14T04:32:05;6.90;;;5.07;;
72891;SDS011;61032;50.782;6.818;2023-06-14T04:33:07;8.98;;;5.40;;
72891;SDS011;61032;50.782;6.818;2023-06-14T04:34:09;9.73;;;5.00;;
72891;SDS011;61032;50.782;6.818;2023-06-14T04:35:15;8.35;;;5.25;;
72891;SDS011;61032;50.782;6.818;2023-06-14T04:36:17;9.27;;;5.15;;
72891;SDS011;61032;50.782;6.818;2023-06-14T04:37:17;9.45;;;5.13;;
72891;SDS011;61032;50.782;6.818;2023-06-14T04:38:19;9.00;;;4.85;;
72891;SDS011;61032;50.782;6.818;2023-06-14T04:39:24;8.93;;;5.35;;
72891;SDS011;61032;50.782;6.818;2023-06-14T04:40:26;6.93;;;5.07;;
72891;SDS011;61032;50.782;6.818;2023-06-14T04:41:26;7.50;;;4.72;;
72891;SDS011;61032;50.782;6.818;2023-06-14T04:42:30;6.28;;;5.68;;
72891;SDS011;61032;50.782;6.818;2023-06-14T04:43:31;6.25;;;4.63;;
72891;SDS011;61032;50.782;6.818;2023-06-14T04:44:37;7.30;;;4.82;;
72891;SDS011;61032;50.782;6.818;2023-06-14T04:45:39;8.52;;;5.75;;
72891;SDS011;61032;50.782;6.818;2023-06-14T04:46:40;8.30;;;5.03;;
72891;SDS011;61032;50.782;6.818;2023-06-14T04:47:45;7.35;;;4.80;;
72891;SDS011;61032;50.782;6.818;2023-06-14T04:48:46;7.15;;;4.47;;
72891;SDS011;61032;50.782;6.818;2023-06-14T04:49:47;8.52;;;4.70;;
72891;SDS011;61032;50.782;6.818;2023-06-14T04:50:48;5.80;;;4.65;;
72891;SDS011;61032;50.782;6.818;2023-06-14T04:51:53;6.15;;;4.95;;
72891;SDS011;61032;50.782;6.818;2023-06-14T04:53:02;5.93;;;5.15;;
72891;SDS011;61032;50.782;6.818;2023-06-14T04:54:03;7.63;;;5.32;;
72891;SDS011;61032;50.782;6.818;2023-06-14T04:55:04;7.50;;;4.63;;
72891;SDS011;61032;50.782;6.818;2023-06-14T04:56:05;7.50;;;4.75;;
72891;SDS011;61032;50.782;6.818;2023-06-14T04:57:05;6.72;;;5.15;;
72891;SDS011;61032;50.782;6.818;2023-06-14T04:58:06;7.30;;;4.97;;
72891;SDS011;61032;50.782;6.818;2023-06-14T04:59:06;10.20;;;5.35;;
72891;SDS011;61032;50.782;6.818;2023-06-14T05:00:06;9.40;;;5.65;;
72891;SDS011;61032;50.782;6.818;2023-06-14T05:01:09;7.03;;;5.00;;
72891;SDS011;61032;50.782;6.818;2023-06-14T05:02:10;7.88;;;4.60;;
72891;SDS011;61032;50.782;6.818;2023-06-14T05:03:11;8.55;;;4.97;;
72891;SDS011;61032;50.782;6.818;2023-06-14T05:04:13;7.70;;;4.90;;
72891;SDS011;61032;50.782;6.818;2023-06-14T05:05:16;12.30;;;5.35;;
72891;SDS011;61032;50.782;6.818;2023-06-14T05:06:17;7.78;;;6.00;;
72891;SDS011;61032;50.782;6.818;2023-06-14T05:07:17;8.95;;;6.38;;
72891;SDS011;61032;50.782;6.818;2023-06-14T05:08:18;6.60;;;4.80;;
72891;SDS011;61032;50.782;6.818;2023-06-14T05:09:18;8.20;;;6.45;;
72891;SDS011;61032;50.782;6.818;2023-06-14T05:10:19;7.10;;;5.18;;
72891;SDS011;61032;50.782;6.818;2023-06-14T05:11:20;8.75;;;5.35;;
72891;SDS011;61032;50.782;6.818;2023-06-14T05:12:20;7.20;;;4.75;;
72891;SDS011;61032;50.782;6.818;2023-06-14T05:13:21;7.60;;;5.15;;
72891;SDS011;61032;50.782;6.818;2023-06-14T05:14:22;5.13;;;4.53;;
72891;SDS011;61032;50.782;6.818;2023-06-14T05:15:23;7.38;;;5.55;;
72891;SDS011;61032;50.782;6.818;2023-06-14T05:16:25;6.25;;;4.95;;
72891;SDS011;61032;50.782;6.818;2023-06-14T05:17:27;5.35;;;4.68;;
72891;SDS011;61032;50.782;6.818;2023-06-14T05:18:28;8.40;;;5.10;;
72891;SDS011;61032;50.782;6.818;2023-06-14T05:19:28;9.68;;;4.55;;
72891;SDS011;61032;50.782;6.818;2023-06-14T05:20:28;5.72;;;4.70;;
72891;SDS011;61032;50.782;6.818;2023-06-14T05:21:29;7.38;;;4.60;;
72891;SDS011;61032;50.782;6.818;2023-06-14T05:22:29;8.10;;;5.00;;
72891;SDS011;61032;50.782;6.818;2023-06-14T05:23:29;6.20;;;4.68;;
72891;SDS011;61032;50.782;6.818;2023-06-14T05:24:30;6.97;;;4.57;;
72891;SDS011;61032;50.782;6.818;2023-06-14T05:25:32;8.27;;;4.40;;
72891;SDS011;61032;50.782;6.818;2023-06-14T05:26:32;7.45;;;4.20;;
72891;SDS011;61032;50.782;6.818;2023-06-14T05:27:33;7.45;;;4.43;;
72891;SDS011;61032;50.782;6.818;2023-06-14T05:28:35;9.63;;;4.95;;
72891;SDS011;61032;50.782;6.818;2023-06-14T05:29:36;7.03;;;4.50;;
72891;SDS011;61032;50.782;6.818;2023-06-14T05:30:39;9.00;;;4.80;;
72891;SDS011;61032;50.782;6.818;2023-06-14T05:31:40;6.75;;;4.35;;
72891;SDS011;61032;50.782;6.818;2023-06-14T05:32:40;7.43;;;4.22;;
72891;SDS011;61032;50.782;6.818;2023-06-14T05:33:41;5.50;;;4.47;;
72891;SDS011;61032;50.782;6.818;2023-06-14T05:34:42;6.72;;;4.28;;
72891;SDS011;61032;50.782;6.818;2023-06-14T05:35:43;5.68;;;3.83;;
72891;SDS011;61032;50.782;6.818;2023-06-14T05:36:43;6.85;;;3.90;;
72891;SDS011;61032;50.782;6.818;2023-06-14T05:37:43;6.10;;;4.05;;
72891;SDS011;61032;50.782;6.818;2023-06-14T05:38:45;6.25;;;3.67;;
72891;SDS011;61032;50.782;6.818;2023-06-14T05:39:45;6.57;;;4.68;;
72891;SDS011;61032;50.782;6.818;2023-06-14T05:40:45;7.28;;;3.58;;
72891;SDS011;61032;50.782;6.818;2023-06-14T05:41:46;8.75;;;4.03;;
72891;SDS011;61032;50.782;6.818;2023-06-14T05:42:46;5.85;;;3.42;;
72891;SDS011;61032;50.782;6.818;2023-06-14T05:43:46;6.10;;;4.07;;
72891;SDS011;61032;50.782;6.818;2023-06-14T05:44:47;8.23;;;3.58;;
72891;SDS011;61032;50.782;6.818;2023-06-14T05:45:47;5.15;;;2.97;;
72891;SDS011;61032;50.782;6.818;2023-06-14T05:46:47;5.80;;;3.28;;
72891;SDS011;61032;50.782;6.818;2023-06-14T05:47:48;7.32;;;3.97;;
72891;SDS011;61032;50.782;6.818;2023-06-14T05:48:48;6.82;;;3.05;;
72891;SDS011;61032;50.782;6.818;2023-06-14T05:49:48;4.95;;;3.05;;
72891;SDS011;61032;50.782;6.818;2023-06-14T05:50:49;11.23;;;2.72;;
72891;SDS011;61032;50.782;6.818;2023-06-14T05:51:49;3.67;;;2.63;;
72891;SDS011;61032;50.782;6.818;2023-06-14T05:52:49;5.85;;;2.63;;
72891;SDS011;61032;50.782;6.818;2023-06-14T05:53:50;4.35;;;2.60;;
72891;SDS011;61032;50.782;6.818;2023-06-14T05:54:50;4.60;;;3.15;;
72891;SDS011;61032;50.782;6.818;2023-06-14T05:55:50;3.95;;;2.70;;
72891;SDS011;61032;50.782;6.818;2023-06-14T05:56:54;3.05;;;2.50;;
72891;SDS011;61032;50.782;6.818;2023-06-14T05:57:55;4.43;;;3.15;;
72891;SDS011;61032;50.782;6.818;2023-06-14T05:58:55;4.82;;;2.67;;
72891;SDS011;61032;50.782;6.818;2023-06-14T05:59:55;4.13;;;3.10;;
72891;SDS011;61032;50.782;6.818;2023-06-14T06:00:56;3.95;;;2.50;;
72891;SDS011;61032;50.782;6.818;2023-06-14T06:01:57;4.28;;;2.53;;
72891;SDS011;61032;50.782;6.818;2023-06-14T06:02:57;4.57;;;2.97;;
72891;SDS011;61032;50.782;6.818;2023-06-14T06:03:57;6.38;;;2.80;;
72891;SDS011;61032;50.782;6.818;2023-06-14T06:04:58;5.13;;;2.50;;
72891;SDS011;61032;50.782;6.818;2023-06-14T06:05:58;4.43;;;2.58;;
72891;SDS011;61032;50.782;6.818;2023-06-14T06:06:59;3.35;;;2.58;;
72891;SDS011;61032;50.782;6.818;2023-06-14T06:07:59;4.30;;;3.15;;
72891;SDS011;61032;50.782;6.818;2023-06-14T06:09:00;4.88;;;2.72;;
72891;SDS011;61032;50.782;6.818;2023-06-14T06:10:00;4.82;;;2.80;;
72891;SDS011;61032;50.782;6.818;2023-06-14T06:11:01;7.30;;;3.33;;
72891;SDS011;61032;50.782;6.818;2023-06-14T06:12:01;6.25;;;2.78;;
72891;SDS011;61032;50.782;6.818;2023-06-14T06:13:02;5.38;;;3.08;;
72891;SDS011;61032;50.782;6.818;2023-06-14T06:14:02;6.80;;;2.83;;
72891;SDS011;61032;50.782;6.818;2023-06-14T06:15:02;4.10;;;2.30;;